Time;durP1;ratioP1;P1;durP2;ratioP2;P2;SDS_P1;SDS_P2;PMS_P1;PMS_P2;Temp;Humidity;BMP_temperature;BMP_pressure;BME280_temperature;BME280_humidity;BME280_pressure;Samples;Min_cycle;Max_cycle;Signal;HPM_P1;HPM_P2
2023/09/19 00:02:18;;;;;;;25.90;17.40;;;;;;;18.64;92.58;98262.30;140910;1247;23290;-85
2023/09/19 00:05:23;;;;;;;18.80;16.80;;;;;;;18.67;92.24;98264.64;140190;1246;22577;-83
2023/09/19 00:08:24;;;;;;;22.80;16.50;;;;;;;18.71;91.48;98262.23;140255;1247;22522;-82
2023/09/19 00:11:26;;;;;;;18.80;15.50;;;;;;;18.75;91.42;98263.02;140878;1247;22547;-86
2023/09/19 00:14:28;;;;;;;19.50;16.40;;;;;;;18.82;91.63;98259.44;140301;1247;22343;-84
2023/09/19 00:17:31;;;;;;;22.00;15.60;;;;;;;18.90;90.74;98255.14;140209;1247;22447;-84
2023/09/19 00:20:34;;;;;;;19.20;15.40;;;;;;;18.92;90.54;98258.07;140468;1247;26004;-85
2023/09/19 00:23:36;;;;;;;20.80;16.00;;;;;;;18.95;90.53;98253.93;140534;1247;22156;-85
2023/09/19 00:26:38;;;;;;;17.00;15.00;;;;;;;19.03;90.16;98249.62;140204;1247;22530;-85
2023/09/19 00:29:39;;;;;;;19.20;14.40;;;;;;;19.07;89.78;98246.52;140346;1247;22425;-85
2023/09/19 00:32:40;;;;;;;24.20;15.50;;;;;;;19.15;89.67;98248.04;140787;1247;22446;-83
2023/09/19 00:35:41;;;;;;;19.70;15.10;;;;;;;19.17;88.96;98239.16;140323;1247;22341;-83
2023/09/19 00:38:44;;;;;;;37.70;16.40;;;;;;;19.17;88.85;98239.17;140205;1247;22541;-84
2023/09/19 00:41:45;;;;;;;20.00;15.20;;;;;;;19.19;88.87;98225.54;140770;1247;22355;-84
2023/09/19 00:44:46;;;;;;;19.00;15.30;;;;;;;19.16;88.40;98226.14;140261;1247;22358;-82
2023/09/19 00:47:49;;;;;;;23.30;15.20;;;;;;;19.03;87.04;98224.59;140284;1247;22358;-83
2023/09/19 00:50:50;;;;;;;19.70;15.60;;;;;;;18.85;87.05;98217.93;140578;1247;22618;-84
2023/09/19 00:53:52;;;;;;;19.70;15.10;;;;;;;18.66;87.34;98218.32;140517;1247;22377;-83
2023/09/19 00:56:54;;;;;;;17.20;14.60;;;;;;;18.51;87.86;98211.17;140227;1247;22353;-83
2023/09/19 00:59:55;;;;;;;18.70;14.20;;;;;;;18.41;88.38;98206.02;140358;1247;22534;-82
2023/09/19 01:02:56;;;;;;;17.50;14.70;;;;;;;18.33;88.82;98203.77;140764;1247;22341;-82
2023/09/19 01:05:57;;;;;;;17.00;15.00;;;;;;;18.26;89.24;98199.95;140321;1244;22676;-82
2023/09/19 01:08:59;;;;;;;17.40;15.50;;;;;;;18.18;89.69;98198.92;140246;1247;24673;-82
2023/09/19 01:12:00;;;;;;;18.40;15.40;;;;;;;18.11;90.02;98188.73;140925;1247;23023;-83
2023/09/19 01:15:04;;;;;;;18.30;15.60;;;;;;;18.05;90.45;98188.18;140238;1247;22622;-84
2023/09/19 01:18:05;;;;;;;16.90;14.40;;;;;;;18.01;90.86;98194.30;140209;1247;22408;-84
2023/09/19 01:21:06;;;;;;;17.60;14.90;;;;;;;17.96;91.39;98184.08;140629;1247;22604;-84
2023/09/19 01:24:08;;;;;;;32.20;17.00;;;;;;;17.90;91.81;98181.23;140397;1247;22414;-84
2023/09/19 01:27:09;;;;;;;73.20;20.20;;;;;;;17.88;92.16;98182.19;140065;1247;22514;-82
2023/09/19 01:30:11;;;;;;;20.00;15.40;;;;;;;17.86;92.34;98178.52;140525;1247;22512;-86
2023/09/19 01:33:12;;;;;;;19.60;15.60;;;;;;;17.84;92.65;98177.37;140552;1247;22540;-82
2023/09/19 01:36:13;;;;;;;16.40;14.20;;;;;;;17.83;92.94;98173.88;140304;1247;22121;-82
2023/09/19 01:39:15;;;;;;;19.00;15.00;;;;;;;17.82;93.10;98171.23;140294;1244;22505;-85
2023/09/19 01:42:17;;;;;;;18.20;15.40;;;;;;;17.82;93.45;98167.02;140784;1247;22336;-83
2023/09/19 01:45:18;;;;;;;16.00;14.30;;;;;;;17.81;93.56;98165.81;140204;1247;22542;-83
2023/09/19 01:48:19;;;;;;;139.80;23.50;;;;;;;17.78;93.85;98162.20;140301;1247;22973;-83
2023/09/19 01:51:21;;;;;;;72.40;18.90;;;;;;;17.76;93.97;98161.37;140829;1247;22348;-83
2023/09/19 01:54:22;;;;;;;19.60;15.70;;;;;;;17.74;94.21;98165.32;140216;1247;22386;-83
2023/09/19 01:57:23;;;;;;;18.30;14.50;;;;;;;17.71;94.37;98161.00;140221;1247;22423;-83
2023/09/19 02:00:24;;;;;;;18.50;14.20;;;;;;;17.71;94.44;98159.94;140719;1247;22572;-84
2023/09/19 02:03:25;;;;;;;28.00;15.70;;;;;;;17.72;94.77;98164.83;140439;1247;22397;-81
2023/09/19 02:06:27;;;;;;;57.70;18.40;;;;;;;17.73;94.94;98163.03;140182;1247;22891;-81
2023/09/19 02:09:28;;;;;;;30.50;14.80;;;;;;;17.74;94.75;98167.77;140463;1247;25413;-85
2023/09/19 02:12:30;;;;;;;17.20;14.30;;;;;;;17.76;94.99;98164.38;140475;1247;22863;-82
2023/09/19 02:15:34;;;;;;;24.90;14.70;;;;;;;17.78;95.05;98164.14;140275;1246;22400;-84
2023/09/19 02:18:35;;;;;;;46.00;17.70;;;;;;;17.80;95.16;98159.70;140330;1247;22514;-85
2023/09/19 02:21:36;;;;;;;18.80;14.70;;;;;;;17.81;95.01;98160.20;140980;1247;22350;-83
2023/09/19 02:24:38;;;;;;;17.90;13.90;;;;;;;17.82;95.26;98157.52;140163;1247;22418;-83
2023/09/19 02:27:39;;;;;;;22.50;14.40;;;;;;;17.82;95.24;98153.66;140178;1247;22708;-83
2023/09/19 02:30:40;;;;;;;25.90;15.80;;;;;;;17.81;95.33;98150.33;140802;1247;22451;-84
2023/09/19 02:33:42;;;;;;;17.90;14.10;;;;;;;17.82;95.46;98150.28;140367;1247;22372;-83
2023/09/19 02:36:44;;;;;;;16.30;14.20;;;;;;;17.82;95.33;98147.30;140364;1247;22809;-82
2023/09/19 02:39:45;;;;;;;18.70;15.40;;;;;;;17.84;95.46;98144.27;140768;1247;23057;-82
2023/09/19 02:42:49;;;;;;;40.10;16.10;;;;;;;17.85;95.47;98140.54;140667;1247;22452;-82
2023/09/19 02:45:50;;;;;;;15.80;14.20;;;;;;;17.88;95.32;98138.70;140453;1244;22276;-82
2023/09/19 02:48:51;;;;;;;16.10;14.50;;;;;;;17.90;95.36;98144.46;140508;1247;22506;-83
2023/09/19 02:51:52;;;;;;;15.90;14.30;;;;;;;17.91;95.35;98145.84;140660;1247;22397;-82
2023/09/19 02:54:54;;;;;;;21.00;15.00;;;;;;;17.92;95.13;98139.11;140216;1247;22380;-82
2023/09/19 02:57:55;;;;;;;20.30;15.70;;;;;;;17.92;95.12;98142.98;140881;1247;22317;-82
2023/09/19 03:00:57;;;;;;;16.60;13.90;;;;;;;17.93;95.15;98140.66;140843;1247;22194;-82
2023/09/19 03:04:02;;;;;;;18.30;14.50;;;;;;;17.94;95.11;98138.00;140919;1247;22914;-82
2023/09/19 03:07:04;;;;;;;21.40;15.10;;;;;;;17.94;95.19;98136.06;140416;1247;22170;-83
2023/09/19 03:10:05;;;;;;;16.80;14.90;;;;;;;17.94;95.06;98130.95;140860;1247;22569;-83
2023/09/19 03:13:09;;;;;;;16.60;14.70;;;;;;;17.95;95.05;98126.88;140533;1247;22351;-83
2023/09/19 03:16:10;;;;;;;23.40;15.50;;;;;;;17.96;95.12;98124.92;140266;1247;22401;-83
2023/09/19 03:19:12;;;;;;;16.20;14.20;;;;;;;17.96;95.29;98115.94;140460;1246;22583;-84
2023/09/19 03:22:13;;;;;;;37.70;15.00;;;;;;;17.96;95.33;98114.16;140805;1247;22414;-84
2023/09/19 03:25:14;;;;;;;18.10;15.20;;;;;;;17.97;95.94;98114.15;140450;1247;23258;-84
2023/09/19 03:28:16;;;;;;;17.40;15.30;;;;;;;17.98;96.54;98115.01;140792;1247;22613;-83
2023/09/19 03:31:17;;;;;;;16.70;15.10;;;;;;;17.98;97.00;98114.10;140890;1247;22864;-84
2023/09/19 03:34:19;;;;;;;19.50;15.20;;;;;;;17.98;97.40;98111.48;140560;1247;22389;-84
2023/09/19 03:37:20;;;;;;;20.60;15.30;;;;;;;17.97;97.64;98111.17;140900;1242;22245;-83
2023/09/19 03:40:21;;;;;;;17.90;14.90;;;;;;;17.94;98.52;98110.52;140884;1246;22311;-84
2023/09/19 03:43:22;;;;;;;16.80;15.10;;;;;;;17.92;99.24;98105.66;140843;1247;23281;-84
2023/09/19 03:46:24;;;;;;;15.40;13.80;;;;;;;17.88;99.83;98100.51;140950;1247;22271;-84
2023/09/19 03:49:25;;;;;;;16.30;14.80;;;;;;;17.85;100.00;98100.58;140911;1247;22204;-84
2023/09/19 03:52:29;;;;;;;18.10;14.80;;;;;;;17.82;100.00;98096.98;140943;1247;22325;-84
2023/09/19 03:55:31;;;;;;;;;;;;;;;17.80;100.00;98092.80;140961;1247;22450;-85
2023/09/19 03:58:34;;;;;;;16.60;14.10;;;;;;;17.78;100.00;98088.48;140705;1244;22564;-84
2023/09/19 04:01:35;;;;;;;16.40;14.70;;;;;;;17.76;100.00;98092.05;140933;1247;22343;-85
2023/09/19 04:04:36;;;;;;;19.20;15.30;;;;;;;17.74;100.00;98096.85;140609;1247;22803;-82
2023/09/19 04:07:37;;;;;;;17.00;15.30;;;;;;;17.77;100.00;98094.33;140932;1247;22316;-81
2023/09/19 04:10:39;;;;;;;16.80;15.20;;;;;;;17.77;100.00;98092.71;140853;1247;22278;-84
2023/09/19 04:13:40;;;;;;;19.20;15.70;;;;;;;17.75;100.00;98090.49;140883;1244;22744;-84
2023/09/19 04:16:41;;;;;;;17.90;16.10;;;;;;;17.72;100.00;98093.56;140896;1247;22353;-86
2023/09/19 04:19:45;;;;;;;20.30;15.90;;;;;;;17.73;100.00;98090.91;140958;1247;22644;-82
2023/09/19 04:22:46;;;;;;;17.70;15.80;;;;;;;17.77;100.00;98093.44;140942;1247;22299;-84
2023/09/19 04:25:48;;;;;;;15.60;14.00;;;;;;;17.75;100.00;98096.13;140845;1247;22190;-84
2023/09/19 04:28:49;;;;;;;16.20;14.50;;;;;;;17.75;100.00;98096.14;140821;1247;22254;-84
2023/09/19 04:31:51;;;;;;;16.10;14.20;;;;;;;17.74;100.00;98094.41;140625;1247;22351;-84
2023/09/19 04:34:54;;;;;;;17.50;15.70;;;;;;;17.74;100.00;98097.74;140526;1247;22381;-83
2023/09/19 04:37:55;;;;;;;23.20;17.20;;;;;;;17.72;100.00;98094.47;140619;1247;22748;-84
2023/09/19 04:40:56;;;;;;;30.90;19.50;;;;;;;17.69;100.00;98098.58;140823;1247;22660;-84
2023/09/19 04:43:58;;;;;;;22.40;17.80;;;;;;;17.68;100.00;98093.88;140225;1247;22454;-84
2023/09/19 04:46:59;;;;;;;21.70;17.50;;;;;;;17.69;100.00;98098.77;140386;1247;25031;-85
2023/09/19 04:50:00;;;;;;;24.00;19.70;;;;;;;17.66;100.00;98106.05;140888;1247;22369;-83
2023/09/19 04:53:03;;;;;;;27.40;21.60;;;;;;;17.63;100.00;98108.77;140504;1247;22373;-83
2023/09/19 04:56:07;;;;;;;24.00;20.20;;;;;;;17.62;100.00;98110.19;140901;1247;22264;-84
2023/09/19 04:59:10;;;;;;;25.70;19.00;;;;;;;17.67;100.00;98104.61;140818;1247;22566;-83
2023/09/19 05:02:12;;;;;;;22.20;18.90;;;;;;;17.67;100.00;98114.98;140380;1247;22436;-82
2023/09/19 05:05:14;;;;;;;18.60;16.80;;;;;;;17.65;100.00;98111.70;140332;1247;22408;-82
2023/09/19 05:08:18;;;;;;;20.20;17.50;;;;;;;17.61;100.00;98111.47;140706;1247;22919;-83
2023/09/19 05:11:19;;;;;;;23.20;19.30;;;;;;;17.56;100.00;98110.19;140545;1247;22406;-83
2023/09/19 05:14:20;;;;;;;26.00;18.90;;;;;;;17.55;100.00;98102.46;140342;1247;22561;-87
2023/09/19 05:17:22;;;;;;;19.20;17.00;;;;;;;17.56;100.00;98102.11;140453;1247;25301;-85
2023/09/19 05:20:29;;;;;;;24.00;18.40;;;;;;;17.48;100.00;98103.02;140331;1246;22534;-85
2023/09/19 05:23:31;;;;;;;34.70;19.90;;;;;;;17.42;100.00;98097.03;140462;1247;22422;-82
2023/09/19 05:26:32;;;;;;;26.30;19.40;;;;;;;17.41;100.00;98092.13;140782;1247;22512;-82
2023/09/19 05:29:33;;;;;;;23.30;19.50;;;;;;;17.40;100.00;98087.42;140780;1247;22227;-83
2023/09/19 05:32:34;;;;;;;25.90;21.00;;;;;;;17.43;100.00;98090.14;140730;1247;22868;-86
2023/09/19 05:35:37;;;;;;;25.30;19.80;;;;;;;18.02;100.00;98081.25;141046;1247;22246;-84
2023/09/19 05:38:42;;;;;;;22.50;19.00;;;;;;;18.82;100.00;98079.29;141011;1246;22662;-84
2023/09/19 05:41:44;;;;;;;35.00;21.50;;;;;;;19.44;100.00;98090.25;140495;1247;22504;-81
2023/09/19 05:44:46;;;;;;;53.10;23.00;;;;;;;19.90;100.00;98095.63;140950;1247;22557;-84
2023/09/19 05:47:47;;;;;;;40.30;21.90;;;;;;;20.18;100.00;98091.41;140690;1241;22633;-86
2023/09/19 05:50:48;;;;;;;40.30;24.10;;;;;;;20.59;100.00;98091.94;140747;1243;22361;-84
2023/09/19 05:53:50;;;;;;;35.30;23.50;;;;;;;20.98;100.00;98089.10;140776;1247;22536;-87
2023/09/19 05:56:52;;;;;;;27.60;18.30;;;;;;;21.13;100.00;98088.50;140861;1246;22312;-87
2023/09/19 05:59:54;;;;;;;24.10;18.40;;;;;;;21.12;100.00;98084.08;140727;1247;22497;-87
2023/09/19 06:02:55;;;;;;;22.00;17.60;;;;;;;21.30;100.00;98079.60;140711;1241;22533;-86
2023/09/19 06:05:57;;;;;;;25.10;20.30;;;;;;;21.45;100.00;98082.50;140899;1246;22332;-85
2023/09/19 06:08:58;;;;;;;31.80;20.70;;;;;;;21.63;100.00;98082.26;140567;1247;22452;-84
2023/09/19 06:12:03;;;;;;;27.20;20.50;;;;;;;21.82;100.00;98088.48;140862;1246;22318;-84
2023/09/19 06:15:05;;;;;;;39.00;20.00;;;;;;;21.94;100.00;98093.45;140867;1247;22225;-85
2023/09/19 06:18:08;;;;;;;20.40;17.90;;;;;;;21.57;100.00;98092.77;140614;1246;22986;-86
2023/09/19 06:21:09;;;;;;;23.10;17.80;;;;;;;21.37;100.00;98095.09;140321;1247;22386;-86
2023/09/19 06:24:11;;;;;;;19.40;17.50;;;;;;;21.42;100.00;98098.94;140793;1247;22332;-83
2023/09/19 06:27:30;;;;;;;26.80;18.80;;;;;;;21.55;100.00;98106.14;140867;1247;22299;-85
2023/09/19 06:30:32;;;;;;;23.60;20.00;;;;;;;21.63;100.00;98102.60;140087;1240;22253;-85
2023/09/19 06:33:38;;;;;;;22.50;20.20;;;;;;;21.80;100.00;98109.69;140718;1246;22583;-83
2023/09/19 06:36:40;;;;;;;23.30;20.20;;;;;;;21.79;100.00;98116.41;140434;1246;22228;-84
2023/09/19 06:39:51;;;;;;;22.90;19.70;;;;;;;21.86;100.00;98116.11;140485;1246;22388;-85
2023/09/19 06:42:55;;;;;;;23.80;19.10;;;;;;;22.05;100.00;98119.19;140592;1231;22540;-85
2023/09/19 06:46:00;;;;;;;28.20;19.30;;;;;;;22.06;100.00;98124.08;140857;1246;22579;-86
2023/09/19 06:49:03;;;;;;;23.70;20.60;;;;;;;21.96;100.00;98127.52;140524;1246;22398;-86
2023/09/19 06:52:04;;;;;;;20.80;18.30;;;;;;;21.93;100.00;98129.81;140859;1246;22689;-86
2023/09/19 06:55:06;;;;;;;23.30;18.10;;;;;;;21.84;100.00;98131.27;140806;1247;22533;-86
2023/09/19 06:58:09;;;;;;;20.20;18.10;;;;;;;21.86;100.00;98133.83;140080;1243;22612;-87
2023/09/19 07:01:13;;;;;;;;;;;;;;;21.70;100.00;98141.46;140583;1246;22674;-86
2023/09/19 07:04:15;;;;;;;21.70;19.30;;;;;;;21.59;100.00;98140.48;140329;1246;22395;-85
2023/09/19 07:07:19;;;;;;;31.40;20.20;;;;;;;21.47;100.00;98148.30;140671;1246;23305;-85
2023/09/19 07:10:23;;;;;;;28.40;20.20;;;;;;;21.23;100.00;98148.38;140901;1247;22245;-84
2023/09/19 07:13:25;;;;;;;;;;;;;;;20.99;100.00;98156.27;140892;1246;22291;-86
2023/09/19 07:16:29;;;;;;;26.70;21.60;;;;;;;20.47;100.00;98157.62;140881;1247;23178;-85
2023/09/19 07:19:31;;;;;;;28.50;21.90;;;;;;;19.87;100.00;98164.97;140859;1246;22203;-84
2023/09/19 07:22:32;;;;;;;27.80;22.10;;;;;;;19.39;100.00;98163.82;140834;1246;22401;-84
2023/09/19 07:25:33;;;;;;;25.50;22.80;;;;;;;18.98;100.00;98164.45;140832;1246;22805;-83
2023/09/19 07:28:36;;;;;;;27.10;24.30;;;;;;;18.66;100.00;98161.58;140818;1246;22226;-84
2023/09/19 07:31:37;;;;;;;25.90;23.00;;;;;;;18.47;100.00;98161.45;140822;1246;22414;-82
2023/09/19 07:34:40;;;;;;;29.40;25.60;;;;;;;18.31;100.00;98161.94;140692;1247;236191;-83
2023/09/19 07:37:41;;;;;;;29.80;25.60;;;;;;;18.23;100.00;98161.48;140874;1246;22240;-82
2023/09/19 07:40:43;;;;;;;29.60;26.70;;;;;;;18.21;100.00;98163.46;140737;1246;22312;-83
2023/09/19 07:43:45;;;;;;;35.70;27.40;;;;;;;18.38;100.00;98160.30;140879;1246;22874;-82
2023/09/19 07:46:46;;;;;;;34.00;27.40;;;;;;;18.43;100.00;98162.27;140839;1247;22267;-83
2023/09/19 07:49:47;;;;;;;33.60;27.00;;;;;;;18.71;100.00;98163.55;140794;1239;22366;-83
2023/09/19 07:52:50;;;;;;;30.20;26.60;;;;;;;19.03;100.00;98166.91;140840;1247;22296;-83
2023/09/19 07:55:55;;;;;;;31.30;26.70;;;;;;;18.99;100.00;98171.27;140822;1246;22348;-83
2023/09/19 07:58:59;;;;;;;31.00;26.20;;;;;;;18.95;100.00;98177.58;140775;1247;22331;-83
2023/09/19 08:02:00;;;;;;;31.00;26.10;;;;;;;18.70;100.00;98189.66;140795;1247;22719;-82
2023/09/19 08:05:06;;;;;;;34.10;28.20;;;;;;;18.33;100.00;98202.20;140792;1246;22292;-83
2023/09/19 08:08:07;;;;;;;33.20;28.40;;;;;;;18.07;100.00;98212.95;140808;1246;22278;-85
2023/09/19 08:11:11;;;;;;;33.90;28.80;;;;;;;17.80;100.00;98216.88;140815;1243;22296;-83
2023/09/19 08:14:14;;;;;;;;;;;;;;;17.59;100.00;98224.45;140834;1247;22301;-84
2023/09/19 08:17:15;;;;;;;34.80;29.50;;;;;;;17.38;100.00;98229.91;140792;1246;22658;-84
2023/09/19 08:20:17;;;;;;;36.70;30.20;;;;;;;17.23;100.00;98230.27;140805;1247;22827;-85
2023/09/19 08:23:20;;;;;;;42.10;30.30;;;;;;;17.31;100.00;98230.41;140428;1247;22527;-85
2023/09/19 08:26:21;;;;;;;34.10;29.70;;;;;;;17.34;100.00;98234.21;140809;1246;22310;-85
2023/09/19 08:29:27;;;;;;;29.30;26.10;;;;;;;17.37;100.00;98236.09;140846;1246;22308;-84
2023/09/19 08:32:31;;;;;;;35.60;28.70;;;;;;;17.18;100.00;98239.52;140872;1247;22339;-85
2023/09/19 08:35:32;;;;;;;42.20;30.00;;;;;;;17.05;100.00;98242.30;140817;1246;22304;-84
2023/09/19 08:38:33;;;;;;;34.20;30.10;;;;;;;16.98;100.00;98236.31;140844;1247;22672;-85
2023/09/19 08:41:35;;;;;;;36.20;32.00;;;;;;;16.94;100.00;98237.29;140873;1247;22353;-83
2023/09/19 08:44:36;;;;;;;39.50;33.10;;;;;;;16.89;100.00;98241.80;140877;1246;22309;-83
2023/09/19 08:47:37;;;;;;;41.10;33.70;;;;;;;16.86;100.00;98245.56;140853;1246;22313;-84
2023/09/19 08:50:38;;;;;;;40.30;35.70;;;;;;;16.85;100.00;98244.70;140847;1246;22253;-83
2023/09/19 08:53:39;;;;;;;40.30;34.00;;;;;;;16.86;100.00;98245.55;140834;1246;22819;-83
2023/09/19 08:56:40;;;;;;;45.80;37.30;;;;;;;16.93;100.00;98251.55;140847;1246;22265;-83
2023/09/19 08:59:41;;;;;;;44.60;37.30;;;;;;;17.06;100.00;98257.74;140879;1246;22212;-83
2023/09/19 09:02:43;;;;;;;51.70;38.40;;;;;;;17.08;100.00;98258.77;140876;1246;22992;-84
2023/09/19 09:05:46;;;;;;;38.30;33.70;;;;;;;17.04;100.00;98262.54;140880;1246;22345;-84
2023/09/19 09:08:47;;;;;;;42.40;34.80;;;;;;;17.01;100.00;98269.46;140595;1246;22867;-85
2023/09/19 09:11:50;;;;;;;47.60;34.50;;;;;;;16.97;100.00;98270.96;140869;1244;22446;-86
2023/09/19 09:14:52;;;;;;;43.70;33.80;;;;;;;16.94;100.00;98275.78;140729;1246;23079;-83
2023/09/19 09:17:53;;;;;;;44.90;34.30;;;;;;;16.93;100.00;98280.38;140670;1246;22893;-84
2023/09/19 09:20:55;;;;;;;39.30;33.60;;;;;;;16.97;100.00;98286.27;140395;1247;22519;-82
2023/09/19 09:23:56;;;;;;;37.50;32.20;;;;;;;17.26;100.00;98285.77;140874;1247;22063;-84
2023/09/19 09:26:58;;;;;;;37.10;32.10;;;;;;;17.56;100.00;98291.02;140878;1246;22307;-82
2023/09/19 09:29:59;;;;;;;40.90;33.00;;;;;;;17.71;100.00;98296.65;140822;1246;22255;-83
2023/09/19 09:33:00;;;;;;;38.80;31.10;;;;;;;17.95;100.00;98300.25;140836;1246;22307;-84
2023/09/19 09:36:02;;;;;;;39.60;30.40;;;;;;;18.14;100.00;98301.89;140877;1247;22876;-85
2023/09/19 09:39:15;;;;;;;36.70;30.10;;;;;;;18.47;100.00;98308.73;140838;1247;22376;-84
2023/09/19 09:42:18;;;;;;;34.00;29.60;;;;;;;18.62;100.00;98318.19;140496;1246;23011;-84
2023/09/19 09:45:28;;;;;;;30.60;24.70;;;;;;;18.58;100.00;98317.59;140938;1247;22329;-85
2023/09/19 09:48:31;;;;;;;30.50;23.50;;;;;;;18.59;100.00;98320.20;140949;1243;22255;-84
2023/09/19 09:51:33;;;;;;;30.50;27.30;;;;;;;18.81;100.00;98318.88;140444;1246;23057;-83
2023/09/19 09:54:36;;;;;;;29.10;25.10;;;;;;;19.03;100.00;98319.63;140873;1246;22270;-84
2023/09/19 09:57:40;;;;;;;25.00;22.20;;;;;;;19.10;100.00;98322.25;140599;1246;22815;-83
2023/09/19 10:00:42;;;;;;;23.20;19.90;;;;;;;19.08;100.00;98321.95;140884;1246;22842;-86
2023/09/19 10:03:44;;;;;;;20.60;18.50;;;;;;;19.13;100.00;98319.35;140893;1246;22251;-84
2023/09/19 10:06:49;;;;;;;22.40;17.60;;;;;;;18.97;100.00;98322.79;140904;1246;22946;-85
2023/09/19 10:09:51;;;;;;;23.40;18.30;;;;;;;18.95;100.00;98325.16;140920;1246;22758;-83
2023/09/19 10:12:52;;;;;;;26.10;17.10;;;;;;;19.11;100.00;98326.81;140896;1246;22709;-84
2023/09/19 10:15:54;;;;;;;21.70;17.50;;;;;;;19.10;100.00;98330.89;140902;1243;22270;-83
2023/09/19 10:19:11;;;;;;;32.20;19.30;;;;;;;19.11;100.00;98329.83;140388;1247;22384;-83
2023/09/19 10:22:12;;;;;;;20.70;17.00;;;;;;;18.98;100.00;98327.37;140800;1246;22436;-83
2023/09/19 10:25:14;;;;;;;25.20;18.20;;;;;;;18.96;100.00;98324.59;140646;1246;22392;-83
2023/09/19 10:28:15;;;;;;;24.50;18.70;;;;;;;18.94;100.00;98315.67;140916;1246;22319;-83
2023/09/19 10:31:16;;;;;;;18.60;14.70;;;;;;;18.87;100.00;98320.27;140835;1247;22279;-83
2023/09/19 10:34:17;;;;;;;19.60;14.40;;;;;;;18.76;100.00;98324.33;140867;1247;22267;-84
2023/09/19 10:37:18;;;;;;;14.40;11.90;;;;;;;18.75;100.00;98323.81;140781;1246;22419;-84
2023/09/19 10:40:20;;;;;;;11.90;9.50;;;;;;;18.71;100.00;98322.53;140540;1246;22504;-84
2023/09/19 10:43:21;;;;;;;14.30;9.80;;;;;;;18.58;100.00;98325.52;140944;1244;22561;-85
2023/09/19 10:46:22;;;;;;;9.50;8.30;;;;;;;18.49;100.00;98329.11;140367;1246;23060;-86
2023/09/19 10:49:24;;;;;;;9.40;7.80;;;;;;;18.41;100.00;98331.08;140409;1247;22509;-86
2023/09/19 10:52:25;;;;;;;9.40;8.10;;;;;;;18.32;100.00;98331.52;140625;1246;22532;-81
2023/09/19 10:55:27;;;;;;;13.10;8.50;;;;;;;18.29;100.00;98336.54;140342;1246;22380;-83
2023/09/19 10:58:29;;;;;;;11.50;8.40;;;;;;;18.36;100.00;98335.80;140325;1246;22534;-84
2023/09/19 11:01:31;;;;;;;14.00;9.20;;;;;;;18.61;100.00;98331.95;140704;1246;22517;-83
2023/09/19 11:04:34;;;;;;;15.80;8.50;;;;;;;18.83;100.00;98335.90;140417;1246;22396;-83
2023/09/19 11:07:41;;;;;;;10.80;8.10;;;;;;;18.76;100.00;98336.64;140352;1246;22227;-83
2023/09/19 11:10:42;;;;;;;10.80;8.30;;;;;;;18.65;100.00;98335.73;140979;1246;22256;-84
2023/09/19 11:13:49;;;;;;;9.90;8.30;;;;;;;18.67;100.00;98337.96;140754;1246;22379;-86
2023/09/19 11:16:51;;;;;;;10.10;8.20;;;;;;;18.56;100.00;98336.85;140531;1246;22555;-87
2023/09/19 11:19:56;;;;;;;10.20;7.80;;;;;;;18.52;100.00;98336.77;140907;1246;22366;-86
2023/09/19 11:22:59;;;;;;;13.90;8.90;;;;;;;18.44;100.00;98338.73;140800;1246;22348;-84
2023/09/19 11:26:02;;;;;;;13.40;9.10;;;;;;;18.47;100.00;98337.98;140703;1246;22549;-84
2023/09/19 11:29:03;;;;;;;13.50;8.60;;;;;;;18.70;100.00;98343.70;140872;1246;22396;-83
2023/09/19 11:32:09;;;;;;;;;;;;;;;18.77;100.00;98352.13;140373;1246;22517;-86
2023/09/19 11:35:16;;;;;;;10.90;8.60;;;;;;;18.74;100.00;98351.14;140714;1246;22913;-83
2023/09/19 11:38:24;;;;;;;16.20;9.10;;;;;;;18.58;100.00;98350.38;140774;1246;22399;-83
2023/09/19 11:41:26;;;;;;;15.20;9.30;;;;;;;18.51;100.00;98351.43;140862;1246;22320;-84
2023/09/19 11:44:27;;;;;;;14.50;9.90;;;;;;;18.54;100.00;98348.88;140912;1246;22348;-84
2023/09/19 11:47:29;;;;;;;14.80;9.90;;;;;;;18.79;100.00;98355.41;140857;1246;22430;-84
2023/09/19 11:50:30;;;;;;;17.90;10.20;;;;;;;18.85;100.00;98358.94;140866;1246;22278;-82
2023/09/19 11:53:32;;;;;;;14.30;10.50;;;;;;;18.93;100.00;98358.36;140862;1243;22291;-84
2023/09/19 11:56:33;;;;;;;13.00;10.30;;;;;;;19.11;100.00;98360.50;140876;1247;22315;-82
2023/09/19 11:59:36;;;;;;;13.50;11.20;;;;;;;19.05;100.00;98364.36;140818;1246;22770;-81
2023/09/19 12:02:37;;;;;;;17.50;13.90;;;;;;;19.30;100.00;98359.92;140833;1247;22342;-82
2023/09/19 12:05:38;;;;;;;24.50;22.10;;;;;;;19.64;100.00;98361.50;140551;1247;22342;-83
2023/09/19 12:08:42;;;;;;;24.00;19.90;;;;;;;19.89;100.00;98359.83;140782;1246;22301;-82
2023/09/19 12:11:44;;;;;;;18.60;16.20;;;;;;;20.10;100.00;98359.32;140773;1247;22239;-81
2023/09/19 12:14:45;;;;;;;14.60;10.10;;;;;;;20.25;100.00;98357.73;140736;1246;22327;-81
2023/09/19 12:17:47;;;;;;;15.30;9.90;;;;;;;20.36;100.00;98356.83;140753;1247;22338;-82
2023/09/19 12:20:50;;;;;;;10.30;8.10;;;;;;;20.43;100.00;98362.60;140739;1247;22159;-82
2023/09/19 12:23:52;;;;;;;15.30;12.10;;;;;;;20.53;100.00;98362.94;140758;1247;22300;-82
2023/09/19 12:26:56;;;;;;;19.80;15.40;;;;;;;20.55;100.00;98367.12;140761;1246;22740;-83
2023/09/19 12:29:59;;;;;;;16.50;14.70;;;;;;;20.56;100.00;98366.57;140795;1239;22819;-82
2023/09/19 12:33:03;;;;;;;22.70;15.70;;;;;;;20.49;100.00;98373.88;140746;1247;22147;-83
2023/09/19 12:36:05;;;;;;;12.10;10.90;;;;;;;20.46;100.00;98374.36;140812;1246;22330;-84
2023/09/19 12:39:13;;;;;;;15.20;13.70;;;;;;;20.29;100.00;98371.89;140826;1246;22281;-84
2023/09/19 12:42:17;;;;;;;15.60;11.70;;;;;;;20.23;100.00;98374.41;140818;1247;22813;-84
2023/09/19 12:45:18;;;;;;;11.80;5.80;;;;;;;20.11;100.00;98378.70;140776;1246;22323;-79
2023/09/19 12:48:21;;;;;;;12.10;6.00;;;;;;;19.81;100.00;98384.09;140846;1246;22305;-79
2023/09/19 12:51:24;;;;;;;6.50;5.10;;;;;;;19.72;100.00;98391.09;140753;1246;22344;-78
2023/09/19 12:54:26;;;;;;;8.00;4.80;;;;;;;19.57;100.00;98394.56;140778;1247;22322;-83
2023/09/19 12:57:27;;;;;;;10.00;5.20;;;;;;;19.51;100.00;98394.92;140813;1246;22380;-83
2023/09/19 13:00:29;;;;;;;9.30;4.90;;;;;;;19.47;100.00;98401.90;140826;1247;22325;-83
2023/09/19 13:03:31;;;;;;;7.00;5.60;;;;;;;19.47;100.00;98405.08;140794;1247;22328;-83
2023/09/19 13:06:33;;;;;;;8.50;5.00;;;;;;;19.61;100.00;98406.27;140840;1247;22318;-83
2023/09/19 13:09:40;;;;;;;6.40;5.30;;;;;;;19.72;100.00;98406.61;140420;1246;22332;-83
2023/09/19 13:12:49;;;;;;;5.90;4.40;;;;;;;19.73;100.00;98413.48;140813;1247;22792;-82
2023/09/19 13:16:01;;;;;;;7.80;4.80;;;;;;;19.51;100.00;98416.81;140841;1247;22322;-81
2023/09/19 13:19:06;;;;;;;5.60;4.20;;;;;;;19.38;100.00;98422.13;140896;1246;22254;-83
2023/09/19 13:22:17;;;;;;;6.10;4.40;;;;;;;19.27;100.00;98421.04;140853;1246;22304;-82
2023/09/19 13:25:23;;;;;;;9.20;4.50;;;;;;;19.09;100.00;98431.27;140863;1246;22251;-81
2023/09/19 13:28:24;;;;;;;8.40;4.60;;;;;;;18.96;100.00;98431.80;140849;1246;22280;-82
2023/09/19 13:31:26;;;;;;;5.20;4.60;;;;;;;18.80;100.00;98437.19;140821;1247;22292;-85
2023/09/19 13:34:29;;;;;;;8.00;4.40;;;;;;;18.72;100.00;98438.80;140809;1247;22318;-81
2023/09/19 13:37:31;;;;;;;6.60;4.80;;;;;;;18.62;100.00;98440.83;140768;1246;22533;-82
2023/09/19 13:40:35;;;;;;;5.30;4.80;;;;;;;18.57;100.00;98440.23;140861;1247;22684;-84
2023/09/19 13:43:37;;;;;;;8.70;6.20;;;;;;;18.53;100.00;98442.11;140894;1247;22632;-83
2023/09/19 13:46:38;;;;;;;9.60;7.20;;;;;;;18.52;100.00;98436.16;140929;1246;22313;-83